Time;durP1;ratioP1;P1;durP2;ratioP2;P2;SDS_P1;SDS_P2;PMS_P1;PMS_P2;Temp;Humidity;BMP_temperature;BMP_pressure;BME280_temperature;BME280_humidity;BME280_pressure;Samples;Min_cycle;Max_cycle;Signal;HPM_P1;HPM_P2
2021/03/10 00:00:31;;;;;;;15.23;9.32;;;4.70;99.90;;;;;;4997162;28;20069;-80
2021/03/10 00:02:57;;;;;;;18.73;9.48;;;4.70;99.90;;;;;;5000573;28;20048;-80
2021/03/10 00:05:24;;;;;;;15.13;9.40;;;4.70;99.90;;;;;;5004626;28;20049;-80
2021/03/10 00:07:50;;;;;;;15.25;9.00;;;4.70;99.90;;;;;;4984908;28;20137;-80
2021/03/10 00:10:17;;;;;;;16.05;9.10;;;4.70;99.90;;;;;;4988845;28;20042;-80
2021/03/10 00:12:44;;;;;;;14.38;8.63;;;4.70;99.90;;;;;;4987376;28;20048;-80
2021/03/10 00:15:12;;;;;;;15.27;9.55;;;4.70;99.90;;;;;;4997164;28;20096;-80
2021/03/10 00:17:39;;;;;;;17.85;9.27;;;4.70;99.90;;;;;;5002839;28;20057;-80
2021/03/10 00:20:07;;;;;;;15.25;8.18;;;4.70;99.90;;;;;;4985388;28;20564;-80
2021/03/10 00:22:33;;;;;;;15.73;9.68;;;4.60;99.90;;;;;;4987817;28;20910;-80
2021/03/10 00:25:00;;;;;;;15.85;9.45;;;4.60;99.90;;;;;;5003583;28;20144;-79
2021/03/10 00:27:27;;;;;;;17.98;9.25;;;4.70;99.90;;;;;;4980449;28;20045;-80
2021/03/10 00:29:56;;;;;;;20.00;9.15;;;4.70;99.90;;;;;;4989029;28;20058;-80
2021/03/10 00:32:23;;;;;;;15.43;8.75;;;4.60;99.90;;;;;;4993237;28;20129;-80
2021/03/10 00:34:50;;;;;;;17.17;9.60;;;4.60;99.90;;;;;;5001654;28;20053;-80
2021/03/10 00:37:17;;;;;;;16.40;9.00;;;4.60;99.90;;;;;;4988904;28;20042;-80
2021/03/10 00:39:44;;;;;;;15.07;9.10;;;4.50;99.90;;;;;;5003977;28;20501;-80
2021/03/10 00:42:12;;;;;;;20.38;9.38;;;4.50;99.90;;;;;;5003260;28;20049;-79
2021/03/10 00:44:39;;;;;;;18.95;9.80;;;4.50;99.90;;;;;;5006390;28;20408;-80
2021/03/10 00:47:06;;;;;;;15.35;10.13;;;4.40;99.90;;;;;;4989866;28;20058;-79
2021/03/10 00:49:32;;;;;;;14.02;8.73;;;4.40;99.90;;;;;;4995626;28;20058;-81
2021/03/10 00:51:59;;;;;;;18.95;9.70;;;4.30;99.90;;;;;;4967121;28;20053;-80
2021/03/10 00:54:25;;;;;;;17.33;9.07;;;4.30;99.90;;;;;;4964908;28;20133;-80
2021/03/10 00:56:51;;;;;;;14.93;8.82;;;4.30;99.90;;;;;;4974604;28;20504;-80
2021/03/10 00:59:18;;;;;;;16.40;9.50;;;4.20;99.90;;;;;;4985801;28;20162;-79
2021/03/10 01:01:44;;;;;;;17.38;9.52;;;4.20;99.90;;;;;;4985273;28;20074;-79
2021/03/10 01:04:10;;;;;;;17.67;9.55;;;4.20;99.90;;;;;;4957181;28;20043;-80
2021/03/10 01:06:36;;;;;;;19.63;10.75;;;4.20;99.90;;;;;;4948623;28;20119;-79
2021/03/10 01:09:07;;;;;;;18.83;10.30;;;4.20;99.90;;;;;;4936083;28;20059;-80
2021/03/10 01:11:34;;;;;;;19.63;10.63;;;4.10;99.90;;;;;;4930606;28;20043;-80
2021/03/10 01:14:01;;;;;;;17.73;9.80;;;4.20;99.90;;;;;;4965397;28;20162;-80
2021/03/10 01:16:28;;;;;;;17.50;9.88;;;4.20;99.90;;;;;;4964438;28;20502;-80
2021/03/10 01:18:56;;;;;;;21.13;10.82;;;4.20;99.90;;;;;;4983563;28;20083;-80
2021/03/10 01:21:23;;;;;;;17.80;10.20;;;4.10;99.90;;;;;;4968229;28;20051;-80
2021/03/10 01:23:49;;;;;;;20.80;11.55;;;4.10;99.90;;;;;;4968203;28;20137;-79
2021/03/10 01:26:15;;;;;;;20.58;11.45;;;4.10;99.90;;;;;;4955972;28;20057;-80
2021/03/10 01:28:41;;;;;;;20.15;11.30;;;4.10;99.90;;;;;;4966494;28;20070;-79
2021/03/10 01:31:08;;;;;;;18.75;9.90;;;4.00;99.90;;;;;;4970104;28;20079;-80
2021/03/10 01:33:34;;;;;;;21.80;11.93;;;4.00;99.90;;;;;;4966954;28;20058;-80
2021/03/10 01:36:09;;;;;;;22.05;10.93;;;3.90;99.90;;;;;;4975330;28;20055;-79
2021/03/10 01:38:36;;;;;;;18.65;10.88;;;3.90;99.90;;;;;;4969734;28;20059;-80
2021/03/10 01:41:03;;;;;;;18.83;10.48;;;3.90;99.90;;;;;;4969064;28;20061;-79
2021/03/10 01:43:29;;;;;;;22.40;11.75;;;3.90;99.90;;;;;;4970799;28;20150;-80
2021/03/10 01:45:56;;;;;;;20.02;10.98;;;3.90;99.90;;;;;;4969685;28;20061;-80
2021/03/10 01:48:23;;;;;;;22.50;12.55;;;3.80;99.90;;;;;;4968508;28;20053;-80
2021/03/10 01:50:49;;;;;;;23.15;12.85;;;3.80;99.90;;;;;;5008289;28;20046;-80
2021/03/10 01:53:16;;;;;;;21.98;12.48;;;3.70;99.90;;;;;;4996289;28;20077;-79
2021/03/10 01:55:43;;;;;;;23.20;11.18;;;3.70;99.90;;;;;;4999222;28;20690;-80
2021/03/10 01:58:09;;;;;;;23.55;11.93;;;3.60;99.90;;;;;;4988382;28;20050;-80
2021/03/10 02:00:36;;;;;;;22.77;11.98;;;3.50;99.90;;;;;;5009885;28;20054;-80
2021/03/10 02:03:02;;;;;;;23.10;12.20;;;3.40;99.90;;;;;;5006770;28;20053;-80
2021/03/10 02:05:29;;;;;;;24.00;12.40;;;3.40;99.90;;;;;;5011831;28;20061;-80
2021/03/10 02:08:18;;;;;;;26.55;13.93;;;3.30;99.90;;;;;;5005170;28;20049;-80
2021/03/10 02:11:11;;;;;;;28.05;13.23;;;3.20;99.90;;;;;;5005284;28;20056;-80
2021/03/10 02:14:03;;;;;;;25.23;13.05;;;3.20;99.90;;;;;;5006167;28;20050;-80
2021/03/10 02:16:37;;;;;;;23.77;12.75;;;3.10;99.90;;;;;;4997865;28;20129;-81
2021/03/10 02:19:16;;;;;;;29.02;13.63;;;3.00;99.90;;;;;;5007033;28;20050;-80
2021/03/10 02:21:57;;;;;;;26.38;12.82;;;3.00;99.90;;;;;;4994549;28;20033;-79
2021/03/10 02:24:56;;;;;;;30.58;13.52;;;2.90;99.90;;;;;;4985971;28;20048;-79
2021/03/10 02:27:50;;;;;;;27.95;13.20;;;2.90;99.90;;;;;;5005175;28;20041;-79
2021/03/10 02:30:37;;;;;;;28.75;13.75;;;2.80;99.90;;;;;;4997656;28;20058;-78
2021/03/10 02:33:25;;;;;;;28.88;13.88;;;2.80;99.90;;;;;;5004681;28;20551;-79
2021/03/10 02:36:04;;;;;;;23.60;12.32;;;2.70;99.90;;;;;;5001255;28;20080;-80
2021/03/10 02:38:31;;;;;;;26.33;12.82;;;2.70;99.90;;;;;;4982182;28;20046;-79
2021/03/10 02:40:58;;;;;;;27.77;14.65;;;2.70;99.90;;;;;;4992130;28;20050;-79
2021/03/10 02:43:25;;;;;;;28.17;13.65;;;2.60;99.90;;;;;;4989188;28;20050;-79
2021/03/10 02:45:54;;;;;;;27.15;13.75;;;2.70;99.90;;;;;;4998050;28;20121;-80
2021/03/10 02:48:22;;;;;;;26.88;13.43;;;2.70;99.90;;;;;;5006976;28;20088;-79
2021/03/10 02:50:49;;;;;;;30.75;14.23;;;2.70;99.90;;;;;;5004029;28;20061;-80
2021/03/10 02:53:16;;;;;;;26.85;13.50;;;2.70;99.90;;;;;;4995831;28;20133;-80
2021/03/10 02:55:43;;;;;;;24.05;12.82;;;2.70;99.90;;;;;;5005886;28;20058;-79
2021/03/10 02:58:10;;;;;;;29.10;13.35;;;2.70;99.90;;;;;;4993562;28;20450;-80
2021/03/10 03:00:38;;;;;;;26.80;13.10;;;2.80;99.90;;;;;;5003957;28;20496;-79
2021/03/10 03:03:04;;;;;;;29.48;13.95;;;2.80;99.90;;;;;;4986080;28;20049;-79
2021/03/10 03:05:32;;;;;;;27.95;13.43;;;2.80;99.90;;;;;;5007262;28;20072;-80
2021/03/10 03:08:01;;;;;;;24.30;13.20;;;2.80;99.90;;;;;;4984742;28;20057;-80
2021/03/10 03:10:31;;;;;;;26.65;13.70;;;2.80;99.90;;;;;;5008430;28;20087;-80
2021/03/10 03:13:00;;;;;;;23.88;12.65;;;2.90;99.90;;;;;;5007752;28;20045;-80
2021/03/10 03:15:26;;;;;;;28.55;14.18;;;2.90;99.90;;;;;;5005564;28;20049;-79
2021/03/10 03:17:54;;;;;;;25.83;13.82;;;2.90;99.90;;;;;;5001661;28;20141;-80
2021/03/10 03:20:24;;;;;;;22.98;12.75;;;2.90;99.90;;;;;;4988383;28;20057;-79
2021/03/10 03:22:57;;;;;;;25.20;12.45;;;2.90;99.90;;;;;;5000148;28;20840;-80
2021/03/10 03:25:28;;;;;;;24.08;12.23;;;3.00;99.90;;;;;;4995238;28;20515;-80
2021/03/10 03:27:59;;;;;;;28.40;13.10;;;3.00;99.90;;;;;;5002971;28;21084;-80
2021/03/10 03:30:27;;;;;;;28.15;13.85;;;3.00;99.90;;;;;;5006646;28;20500;-80
2021/03/10 03:32:55;;;;;;;25.70;12.82;;;3.10;99.90;;;;;;5003859;28;20160;-80
2021/03/10 03:35:22;;;;;;;25.30;13.55;;;3.10;99.90;;;;;;5004820;28;20152;-80
2021/03/10 03:37:51;;;;;;;25.92;12.48;;;3.10;99.90;;;;;;4995277;28;20045;-80
2021/03/10 03:40:21;;;;;;;25.70;13.27;;;3.10;99.90;;;;;;4984778;28;20076;-80
2021/03/10 03:42:50;;;;;;;24.95;13.07;;;3.10;99.90;;;;;;5004403;28;20045;-80
2021/03/10 03:45:17;;;;;;;27.83;13.18;;;3.10;99.90;;;;;;4996087;28;20509;-80
2021/03/10 03:47:47;;;;;;;24.33;13.00;;;3.10;99.90;;;;;;4998796;28;20037;-80
2021/03/10 03:50:14;;;;;;;25.85;13.00;;;3.10;99.90;;;;;;5004893;28;20053;-80
2021/03/10 03:52:41;;;;;;;24.35;12.93;;;3.20;99.90;;;;;;5003738;28;20444;-80
2021/03/10 03:55:08;;;;;;;24.63;13.10;;;3.20;99.90;;;;;;5002356;28;20081;-80
2021/03/10 03:57:36;;;;;;;26.25;13.38;;;3.20;99.90;;;;;;5003863;28;20117;-79
2021/03/10 04:00:25;;;;;;;26.95;13.18;;;3.30;99.90;;;;;;4985304;28;20058;-80
2021/03/10 04:02:53;;;;;;;25.88;12.82;;;3.30;99.90;;;;;;5002311;28;20076;-79
2021/03/10 04:05:20;;;;;;;23.92;12.70;;;3.30;99.90;;;;;;5004449;28;20061;-80
2021/03/10 04:08:06;;;;;;;24.33;13.40;;;3.30;99.90;;;;;;4984141;28;20406;-81
2021/03/10 04:10:34;;;;;;;25.80;13.02;;;3.30;99.90;;;;;;5004547;28;20405;-80
2021/03/10 04:13:01;;;;;;;27.35;14.30;;;3.30;99.90;;;;;;4991070;28;20056;-80
2021/03/10 04:15:30;;;;;;;23.08;12.93;;;3.30;99.90;;;;;;5004868;28;20400;-79
2021/03/10 04:17:57;;;;;;;25.67;12.52;;;3.30;99.90;;;;;;4989500;28;20143;-80
2021/03/10 04:20:24;;;;;;;26.75;14.73;;;3.40;99.90;;;;;;4981510;28;20141;-80
2021/03/10 04:22:50;;;;;;;26.90;12.70;;;3.40;99.90;;;;;;5004441;28;20050;-80
2021/03/10 04:25:17;;;;;;;23.30;13.13;;;3.40;99.90;;;;;;5001139;28;20045;-79
2021/03/10 04:27:43;;;;;;;26.05;13.88;;;3.40;99.90;;;;;;5003205;28;20057;-80
2021/03/10 04:30:11;;;;;;;24.33;13.30;;;3.40;99.90;;;;;;4995112;28;20056;-80
2021/03/10 04:32:38;;;;;;;25.33;13.18;;;3.30;99.90;;;;;;4995075;28;20064;-79
2021/03/10 04:35:06;;;;;;;24.73;13.27;;;3.30;99.90;;;;;;4995324;28;20050;-80
2021/03/10 04:37:33;;;;;;;31.95;13.20;;;3.20;99.90;;;;;;5000129;28;20144;-80
2021/03/10 04:39:59;;;;;;;28.13;14.00;;;3.20;99.90;;;;;;5007664;28;20505;-79
2021/03/10 04:42:25;;;;;;;34.75;16.15;;;3.20;99.90;;;;;;5008899;28;20058;-80
2021/03/10 04:44:51;;;;;;;28.50;14.85;;;3.20;99.90;;;;;;5010149;28;20393;-80
2021/03/10 04:47:18;;;;;;;25.45;13.35;;;3.10;99.90;;;;;;4997676;28;20092;-80
2021/03/10 04:49:44;;;;;;;29.98;13.73;;;3.10;99.90;;;;;;4999032;28;20060;-79
2021/03/10 04:52:11;;;;;;;28.42;13.55;;;3.10;99.90;;;;;;5007481;28;20046;-80
2021/03/10 04:54:37;;;;;;;30.38;14.13;;;3.10;99.90;;;;;;5008052;28;20160;-80
2021/03/10 04:57:04;;;;;;;31.85;15.27;;;3.20;99.90;;;;;;4989921;28;20493;-79
2021/03/10 04:59:30;;;;;;;28.15;14.15;;;3.10;99.90;;;;;;5000178;28;20136;-80
2021/03/10 05:02:00;;;;;;;32.08;14.38;;;3.10;99.90;;;;;;5008776;28;20075;-79
2021/03/10 05:04:27;;;;;;;27.67;14.07;;;3.10;99.90;;;;;;4995291;28;20073;-79
2021/03/10 05:06:53;;;;;;;30.52;14.00;;;3.10;99.90;;;;;;5008964;28;20155;-80
2021/03/10 05:09:20;;;;;;;30.75;16.05;;;3.10;99.90;;;;;;5006531;28;20050;-80
2021/03/10 05:11:46;;;;;;;34.95;14.73;;;3.10;99.90;;;;;;5007156;28;20077;-80
2021/03/10 05:14:12;;;;;;;30.52;15.55;;;3.10;99.90;;;;;;4992185;28;20049;-80
2021/03/10 05:16:38;;;;;;;32.42;15.32;;;3.10;99.90;;;;;;4996061;28;20145;-80
2021/03/10 05:19:05;;;;;;;33.13;14.98;;;3.10;99.90;;;;;;5002853;28;20460;-79
2021/03/10 05:21:31;;;;;;;30.42;14.60;;;3.20;99.90;;;;;;5009614;28;20137;-80
2021/03/10 05:23:57;;;;;;;28.50;14.13;;;3.10;99.90;;;;;;5006802;28;20408;-80
2021/03/10 05:26:24;;;;;;;28.52;14.80;;;3.10;99.90;;;;;;5009058;28;20049;-80
2021/03/10 05:28:50;;;;;;;35.50;16.73;;;3.10;99.90;;;;;;4992568;28;20057;-80
2021/03/10 05:31:16;;;;;;;31.55;15.27;;;3.20;99.90;;;;;;4999066;28;20124;-80
2021/03/10 05:33:42;;;;;;;28.67;13.50;;;3.20;99.90;;;;;;5006182;28;20042;-79
2021/03/10 05:36:09;;;;;;;28.13;14.68;;;3.20;99.90;;;;;;5009565;28;20045;-81
2021/03/10 05:38:36;;;;;;;29.48;13.60;;;3.20;99.90;;;;;;4998598;28;20053;-80
2021/03/10 05:41:03;;;;;;;31.35;13.93;;;3.20;99.90;;;;;;4999919;28;20052;-80
2021/03/10 05:43:30;;;;;;;28.85;14.57;;;3.20;99.90;;;;;;4993457;28;20050;-80
2021/03/10 05:45:56;;;;;;;25.90;13.82;;;3.20;99.90;;;;;;5006074;28;20046;-80
2021/03/10 05:48:23;;;;;;;28.95;14.77;;;3.10;99.90;;;;;;5007668;28;20453;-79
2021/03/10 05:50:50;;;;;;;30.65;14.15;;;3.20;99.90;;;;;;4996273;28;20049;-80
2021/03/10 05:53:19;;;;;;;26.90;13.90;;;3.20;99.90;;;;;;4988686;28;20057;-80
2021/03/10 05:55:47;;;;;;;29.77;13.45;;;3.20;99.90;;;;;;4995607;28;20141;-80
2021/03/10 05:58:13;;;;;;;29.65;14.70;;;3.20;99.90;;;;;;4999371;28;20110;-80
2021/03/10 06:00:47;;;;;;;30.75;15.73;;;3.20;99.90;;;;;;5000355;28;20105;-81
2021/03/10 06:03:16;;;;;;;31.70;15.32;;;3.20;99.90;;;;;;4986807;28;20081;-81
2021/03/10 06:05:43;;;;;;;33.83;15.60;;;3.20;99.90;;;;;;4995208;28;20056;-81
2021/03/10 06:08:14;;;;;;;27.05;14.68;;;3.20;99.90;;;;;;4997279;28;20081;-81
2021/03/10 06:10:46;;;;;;;29.00;14.02;;;3.20;99.90;;;;;;5004386;28;20045;-80
2021/03/10 06:13:21;;;;;;;31.67;15.38;;;3.20;99.90;;;;;;5004387;28;20046;-81
2021/03/10 06:15:49;;;;;;;30.50;14.90;;;3.10;99.90;;;;;;4995008;28;20136;-81
2021/03/10 06:18:27;;;;;;;29.67;15.18;;;3.20;99.90;;;;;;4997987;28;20081;-80
2021/03/10 06:21:07;;;;;;;31.17;15.82;;;3.20;99.90;;;;;;4992760;28;20460;-81
2021/03/10 06:23:35;;;;;;;29.23;14.45;;;3.20;99.90;;;;;;4991207;28;20062;-81
2021/03/10 06:26:03;;;;;;;38.75;15.65;;;3.20;99.90;;;;;;5006544;28;20141;-81
2021/03/10 06:28:39;;;;;;;37.28;15.52;;;3.20;99.90;;;;;;5004332;28;20049;-81
2021/03/10 06:31:20;;;;;;;30.77;15.27;;;3.20;99.90;;;;;;5009055;28;20068;-81
2021/03/10 06:34:02;;;;;;;30.27;14.38;;;3.30;99.90;;;;;;5007646;28;20450;-81
2021/03/10 06:36:34;;;;;;;30.15;15.10;;;3.30;99.90;;;;;;5006856;28;20042;-81
2021/03/10 06:39:02;;;;;;;30.40;14.43;;;3.30;99.90;;;;;;5006970;28;20442;-80
2021/03/10 06:41:40;;;;;;;29.42;14.38;;;3.30;99.90;;;;;;4992629;28;20037;-79
2021/03/10 06:44:18;;;;;;;35.58;15.60;;;3.30;99.90;;;;;;5003750;28;20044;-78
2021/03/10 06:46:58;;;;;;;32.33;15.57;;;3.40;99.90;;;;;;4995506;28;20437;-80
2021/03/10 06:49:27;;;;;;;27.70;13.88;;;3.40;99.90;;;;;;5002717;28;20041;-78
2021/03/10 06:51:54;;;;;;;28.42;14.70;;;3.40;99.90;;;;;;5001067;28;20049;-77
2021/03/10 06:54:22;;;;;;;30.05;15.27;;;3.50;99.90;;;;;;5003314;28;20044;-78
2021/03/10 06:57:01;;;;;;;28.30;14.73;;;3.50;99.90;;;;;;4999409;28;20049;-77
2021/03/10 06:59:43;;;;;;;31.83;14.80;;;3.50;99.90;;;;;;4988590;28;20041;-77
2021/03/10 07:02:26;;;;;;;28.90;14.88;;;3.60;99.90;;;;;;5001176;28;20045;-77
2021/03/10 07:04:59;;;;;;;32.65;16.33;;;3.60;99.90;;;;;;4988639;28;20046;-80
2021/03/10 07:07:28;;;;;;;34.55;16.48;;;3.70;99.90;;;;;;4994185;28;20041;-83
2021/03/10 07:09:55;;;;;;;44.55;19.70;;;3.70;99.90;;;;;;5007652;28;20120;-80
2021/03/10 07:12:24;;;;;;;37.15;17.83;;;3.70;99.90;;;;;;4989844;28;20133;-80
2021/03/10 07:14:52;;;;;;;38.65;18.52;;;3.80;99.90;;;;;;5000052;28;20103;-80
2021/03/10 07:17:20;;;;;;;39.65;17.55;;;3.80;99.90;;;;;;4993326;28;20050;-79
2021/03/10 07:19:48;;;;;;;42.47;19.55;;;3.80;99.90;;;;;;5004657;28;20050;-79
2021/03/10 07:22:24;;;;;;;37.78;18.27;;;3.90;99.90;;;;;;4993204;28;20058;-78
2021/03/10 07:25:20;;;;;;;47.17;21.02;;;3.90;99.90;;;;;;5003767;28;20127;-77
2021/03/10 07:27:54;;;;;;;50.78;21.08;;;3.90;99.90;;;;;;5003994;28;20137;-78
2021/03/10 07:30:35;;;;;;;47.28;21.88;;;4.00;99.90;;;;;;5002975;28;20068;-79
2021/03/10 07:33:06;;;;;;;48.63;21.13;;;4.00;99.90;;;;;;4983671;28;20054;-78
2021/03/10 07:35:32;;;;;;;46.92;22.30;;;4.00;99.90;;;;;;4996511;28;20105;-79
2021/03/10 07:37:59;;;;;;;51.42;23.17;;;4.10;99.90;;;;;;4994429;28;20074;-78
2021/03/10 07:40:52;;;;;;;48.05;23.05;;;4.10;99.90;;;;;;4996728;28;20069;-79
2021/03/10 07:43:18;;;;;;;54.33;25.52;;;4.10;99.90;;;;;;5002958;28;20414;-79
2021/03/10 07:45:45;;;;;;;51.38;24.15;;;4.20;99.90;;;;;;4988896;28;20116;-79
2021/03/10 07:48:12;;;;;;;48.58;22.48;;;4.30;99.90;;;;;;4998088;28;20093;-79
2021/03/10 07:50:45;;;;;;;50.35;23.42;;;4.30;99.90;;;;;;5004341;28;20108;-79
2021/03/10 07:53:11;;;;;;;63.00;25.70;;;4.40;99.90;;;;;;4986150;28;20050;-80
2021/03/10 07:55:46;;;;;;;52.85;24.13;;;4.40;99.90;;;;;;5004585;28;20513;-80
2021/03/10 07:58:24;;;;;;;58.05;24.65;;;4.50;99.90;;;;;;4976796;28;20049;-80
2021/03/10 08:00:50;;;;;;;56.08;25.60;;;4.60;99.90;;;;;;4990283;28;20109;-80
2021/03/10 08:03:33;;;;;;;55.50;25.95;;;4.60;99.90;;;;;;4986652;28;20060;-80
2021/03/10 08:06:05;;;;;;;59.10;26.00;;;4.60;99.90;;;;;;5004245;28;22576;-79
2021/03/10 08:08:39;;;;;;;66.25;27.60;;;4.70;99.90;;;;;;5002419;28;20143;-80
2021/03/10 08:11:14;;;;;;;54.78;26.50;;;4.80;99.90;;;;;;5004453;28;20054;-79
2021/03/10 08:13:41;;;;;;;56.53;25.85;;;4.80;99.90;;;;;;5002871;28;20156;-80
2021/03/10 08:16:12;;;;;;;54.90;26.45;;;4.90;99.90;;;;;;5003398;28;20046;-80
2021/03/10 08:18:45;;;;;;;55.88;24.95;;;5.00;99.90;;;;;;4988228;28;20050;-81
2021/03/10 08:21:16;;;;;;;53.33;25.63;;;5.00;99.90;;;;;;5004179;28;20050;-81
2021/03/10 08:23:42;;;;;;;59.47;26.35;;;5.10;99.90;;;;;;4990171;28;20056;-80
2021/03/10 08:26:08;;;;;;;59.00;25.50;;;5.20;99.90;;;;;;4996789;28;20062;-81
2021/03/10 08:28:37;;;;;;;61.65;26.98;;;5.30;99.90;;;;;;5003718;28;20066;-78
2021/03/10 08:31:05;;;;;;;61.03;27.10;;;5.30;99.90;;;;;;4990774;28;20053;-80
2021/03/10 08:33:47;;;;;;;58.60;27.25;;;5.40;99.90;;;;;;5003235;28;20121;-80
2021/03/10 08:36:15;;;;;;;58.75;27.55;;;5.40;99.90;;;;;;5004942;28;20053;-81
2021/03/10 08:38:42;;;;;;;52.58;26.30;;;5.50;99.90;;;;;;4990781;28;20498;-78
2021/03/10 08:41:24;;;;;;;58.50;26.92;;;5.60;99.90;;;;;;5005424;28;20073;-80
2021/03/10 08:44:09;;;;;;;57.88;28.08;;;5.60;99.90;;;;;;5008982;28;20042;-79
2021/03/10 08:46:37;;;;;;;61.45;27.70;;;5.60;99.90;;;;;;4992572;28;20066;-79
2021/03/10 08:49:04;;;;;;;60.78;27.45;;;5.70;99.90;;;;;;4999642;28;20051;-79
2021/03/10 08:51:30;;;;;;;57.33;27.75;;;5.80;99.90;;;;;;4983373;28;20050;-80
2021/03/10 08:54:05;;;;;;;53.92;26.35;;;5.90;99.90;;;;;;4982758;28;20082;-79
2021/03/10 08:56:31;;;;;;;55.88;27.60;;;5.90;99.90;;;;;;4985206;28;20061;-79
2021/03/10 08:58:59;;;;;;;51.85;27.38;;;5.90;99.90;;;;;;4986157;28;20128;-80
2021/03/10 09:01:25;;;;;;;57.13;25.80;;;6.00;99.90;;;;;;4985810;28;20042;-79
2021/03/10 09:03:52;;;;;;;56.67;27.60;;;6.10;99.90;;;;;;4984413;28;20104;-80
2021/03/10 09:06:20;;;;;;;48.97;25.95;;;6.10;99.90;;;;;;4982665;28;20106;-79
2021/03/10 09:08:46;;;;;;;53.50;25.85;;;6.20;99.90;;;;;;4976533;28;20466;-80
2021/03/10 09:11:18;;;;;;;57.42;25.42;;;6.20;99.90;;;;;;4964280;28;20038;-78
2021/03/10 09:13:44;;;;;;;50.88;25.27;;;6.20;99.90;;;;;;4985969;28;20528;-79
2021/03/10 09:16:12;;;;;;;57.13;25.67;;;6.20;99.90;;;;;;4986306;28;20288;-78
2021/03/10 09:18:38;;;;;;;55.65;26.42;;;6.20;99.90;;;;;;4989473;28;20058;-79
2021/03/10 09:21:05;;;;;;;51.47;25.08;;;6.20;99.90;;;;;;5004097;28;20053;-78
2021/03/10 09:23:32;;;;;;;51.88;25.45;;;6.30;99.90;;;;;;4987624;28;20129;-78
2021/03/10 09:25:58;;;;;;;51.58;24.88;;;6.30;99.90;;;;;;4997781;28;20154;-79
2021/03/10 09:28:33;;;;;;;50.58;24.85;;;6.40;99.90;;;;;;4988156;28;20046;-79
2021/03/10 09:31:10;;;;;;;52.92;26.13;;;6.50;99.90;;;;;;4987954;28;20105;-80
2021/03/10 09:33:40;;;;;;;52.25;25.10;;;6.50;99.90;;;;;;5004717;28;20088;-80
2021/03/10 09:36:06;;;;;;;56.72;25.80;;;6.50;99.90;;;;;;4988339;28;20057;-79
2021/03/10 09:38:34;;;;;;;48.15;26.15;;;6.50;99.90;;;;;;5002939;28;20113;-80
2021/03/10 09:41:02;;;;;;;51.75;25.52;;;6.50;99.90;;;;;;4988316;28;20073;-80
2021/03/10 09:43:31;;;;;;;47.53;23.33;;;6.60;99.90;;;;;;4988485;28;20058;-79
2021/03/10 09:46:00;;;;;;;49.45;23.42;;;6.60;99.90;;;;;;4987257;28;20056;-80
2021/03/10 09:48:40;;;;;;;47.58;24.73;;;6.70;99.90;;;;;;4981738;28;20081;-79
2021/03/10 09:51:15;;;;;;;47.85;23.77;;;6.80;99.90;;;;;;5004750;28;20068;-80
2021/03/10 09:53:50;;;;;;;46.25;24.20;;;6.80;99.90;;;;;;5001086;28;20087;-79
2021/03/10 09:56:20;;;;;;;48.03;24.73;;;6.80;99.90;;;;;;5004681;28;20045;-80
2021/03/10 09:58:57;;;;;;;44.72;23.17;;;6.90;99.90;;;;;;4995337;28;20081;-80
2021/03/10 10:01:25;;;;;;;47.55;22.98;;;6.90;99.90;;;;;;4995659;28;20046;-80
2021/03/10 10:03:53;;;;;;;42.17;22.85;;;7.00;99.90;;;;;;4997540;28;20049;-82
2021/03/10 10:06:20;;;;;;;41.92;21.95;;;7.10;99.90;;;;;;4997719;28;20045;-79
2021/03/10 10:08:47;;;;;;;42.72;23.20;;;7.10;99.90;;;;;;4987225;28;20064;-81
2021/03/10 10:11:15;;;;;;;38.88;22.70;;;7.10;99.90;;;;;;4997125;28;20505;-81
2021/03/10 10:13:44;;;;;;;42.70;21.92;;;7.10;99.90;;;;;;5002984;28;20053;-78
2021/03/10 10:16:12;;;;;;;46.55;22.80;;;7.20;99.90;;;;;;5005738;28;20592;-80
2021/03/10 10:18:38;;;;;;;39.38;21.20;;;7.30;99.90;;;;;;5008843;28;20438;-80
2021/03/10 10:21:05;;;;;;;45.00;22.48;;;7.40;99.90;;;;;;4990031;28;20085;-79
2021/03/10 10:23:32;;;;;;;43.90;23.73;;;7.40;99.90;;;;;;4991181;28;20074;-80
2021/03/10 10:25:58;;;;;;;43.72;22.95;;;7.50;99.90;;;;;;4989752;28;20064;-80
2021/03/10 10:28:24;;;;;;;47.13;22.10;;;7.60;99.90;;;;;;4990998;28;20164;-81
2021/03/10 10:30:51;;;;;;;44.88;22.67;;;7.60;99.90;;;;;;5009176;28;20057;-80
2021/03/10 10:33:17;;;;;;;50.17;25.80;;;7.70;99.90;;;;;;4996118;28;20583;-79
2021/03/10 10:35:44;;;;;;;42.75;22.60;;;7.70;99.90;;;;;;4990233;28;20137;-80
2021/03/10 10:38:10;;;;;;;40.97;22.77;;;7.70;99.90;;;;;;4991295;28;20056;-81
2021/03/10 10:40:37;;;;;;;42.20;23.17;;;7.80;99.90;;;;;;4993285;28;20110;-79
2021/03/10 10:43:05;;;;;;;39.70;21.70;;;7.90;99.90;;;;;;5004789;28;20154;-81
2021/03/10 10:45:31;;;;;;;40.50;22.08;;;8.00;99.90;;;;;;4996129;28;20139;-80
2021/03/10 10:47:58;;;;;;;38.42;21.00;;;8.00;99.90;;;;;;4998717;28;20050;-79
2021/03/10 10:50:25;;;;;;;40.92;23.00;;;8.10;99.90;;;;;;4995825;28;20058;-81
2021/03/10 10:52:51;;;;;;;39.20;19.38;;;8.10;99.90;;;;;;5004004;28;20081;-81
2021/03/10 10:55:19;;;;;;;36.42;21.10;;;8.10;99.90;;;;;;4994393;28;20478;-79
2021/03/10 10:57:46;;;;;;;37.75;19.92;;;8.20;99.90;;;;;;4989717;28;20045;-82
2021/03/10 11:00:19;;;;;;;35.15;18.98;;;8.10;99.90;;;;;;4985261;28;20116;-79
2021/03/10 11:02:45;;;;;;;32.90;19.23;;;8.20;99.90;;;;;;4990298;28;20104;-79
2021/03/10 11:05:12;;;;;;;38.35;21.35;;;8.20;99.90;;;;;;5007971;28;20485;-80
2021/03/10 11:07:39;;;;;;;40.72;21.67;;;8.20;99.90;;;;;;5006559;28;20076;-82
2021/03/10 11:10:07;;;;;;;45.17;25.38;;;8.20;99.90;;;;;;5008373;28;20057;-80
2021/03/10 11:12:34;;;;;;;42.97;23.92;;;8.20;99.90;;;;;;4996760;28;20487;-80
2021/03/10 11:15:00;;;;;;;40.97;22.15;;;8.20;99.90;;;;;;4994418;28;20057;-81
2021/03/10 11:17:27;;;;;;;39.22;21.60;;;8.20;99.90;;;;;;4982741;28;20053;-79
2021/03/10 11:19:53;;;;;;;41.60;21.27;;;8.20;99.90;;;;;;5000938;28;20060;-81
2021/03/10 11:22:20;;;;;;;40.75;21.58;;;8.30;99.90;;;;;;4996709;28;20065;-79
2021/03/10 11:24:46;;;;;;;33.75;20.60;;;8.20;99.90;;;;;;4992082;28;20501;-80
2021/03/10 11:27:17;;;;;;;35.13;21.13;;;8.20;99.90;;;;;;4994024;28;20057;-81
2021/03/10 11:29:44;;;;;;;31.70;19.55;;;8.20;99.90;;;;;;4973273;28;20133;-80
2021/03/10 11:32:11;;;;;;;34.15;19.17;;;8.20;99.90;;;;;;4979725;28;20064;-79
2021/03/10 11:34:38;;;;;;;34.47;20.17;;;8.20;99.90;;;;;;4993921;28;20378;-82
2021/03/10 11:37:07;;;;;;;40.30;19.58;;;8.20;99.90;;;;;;4987943;28;20125;-79
2021/03/10 11:39:33;;;;;;;38.25;20.83;;;8.20;99.90;;;;;;4985020;28;20549;-79
2021/03/10 11:42:07;;;;;;;34.65;20.05;;;8.20;99.90;;;;;;5007441;28;20141;-80
2021/03/10 11:44:34;;;;;;;44.30;21.20;;;8.20;99.90;;;;;;4987790;28;20476;-81
2021/03/10 11:47:00;;;;;;;32.38;18.90;;;8.20;99.90;;;;;;4995780;28;20137;-81
2021/03/10 11:49:27;;;;;;;33.95;18.58;;;8.30;99.90;;;;;;4986206;28;20049;-82
2021/03/10 11:51:53;;;;;;;36.28;20.77;;;8.30;99.90;;;;;;5006498;28;20116;-82
2021/03/10 11:54:19;;;;;;;32.75;20.35;;;8.30;99.90;;;;;;4986286;28;20050;-81
2021/03/10 11:56:46;;;;;;;33.67;18.60;;;8.40;99.90;;;;;;4997000;28;20141;-82
2021/03/10 11:59:13;;;;;;;41.42;19.85;;;8.40;99.90;;;;;;4990607;28;20137;-80
2021/03/10 12:01:43;;;;;;;35.30;19.08;;;8.40;99.90;;;;;;4992303;28;20799;-81
2021/03/10 12:04:09;;;;;;;36.83;20.33;;;8.50;99.90;;;;;;4986075;28;20038;-81
2021/03/10 12:06:39;;;;;;;33.67;20.13;;;8.50;99.90;;;;;;5008970;28;20092;-81
2021/03/10 12:09:07;;;;;;;33.78;18.60;;;8.60;99.90;;;;;;5008717;28;20050;-81
2021/03/10 12:11:34;;;;;;;34.35;18.65;;;8.70;99.90;;;;;;4972846;28;20116;-81
2021/03/10 12:14:18;;;;;;;35.80;18.60;;;8.80;99.90;;;;;;4974198;28;20489;-78
2021/03/10 12:16:44;;;;;;;36.70;18.77;;;8.90;99.90;;;;;;4978067;28;20054;-79
2021/03/10 12:19:10;;;;;;;31.75;17.88;;;8.90;99.90;;;;;;4971052;28;20054;-78
2021/03/10 12:21:36;;;;;;;38.53;20.65;;;8.90;99.90;;;;;;4996687;28;20058;-81
2021/03/10 12:24:04;;;;;;;34.58;19.75;;;8.90;99.90;;;;;;4985550;28;20054;-79
2021/03/10 12:26:30;;;;;;;35.58;18.58;;;8.90;99.90;;;;;;4989768;28;20441;-79
2021/03/10 12:28:56;;;;;;;34.55;18.48;;;8.90;99.90;;;;;;4986156;28;20084;-79
2021/03/10 12:31:23;;;;;;;35.28;19.88;;;8.90;99.90;;;;;;5004603;28;20061;-80
2021/03/10 12:33:49;;;;;;;32.67;17.90;;;8.90;99.90;;;;;;4993053;28;20046;-78
2021/03/10 12:36:15;;;;;;;33.80;17.98;;;8.90;99.90;;;;;;4986125;28;20065;-80
2021/03/10 12:38:42;;;;;;;36.55;19.15;;;9.00;99.90;;;;;;5004909;28;20070;-80
2021/03/10 12:41:10;;;;;;;36.40;18.80;;;9.00;99.90;;;;;;4992859;28;20144;-81
2021/03/10 12:43:36;;;;;;;37.13;19.27;;;9.10;99.90;;;;;;4987137;28;20071;-82
2021/03/10 12:46:03;;;;;;;38.15;19.30;;;9.10;99.90;;;;;;4979375;28;20057;-81
2021/03/10 12:48:29;;;;;;;32.65;19.08;;;9.10;99.90;;;;;;4998871;28;20457;-81